Rapid City, South Dakota
Current Conditions -  °F | °C
As of 3:58 AM on Tuesday 21 Oct 2014 (Local Time) from KRCA Reporting Station
Clear Clear  
Wind Chill: 53°   Ceiling: Unl
Heat Index: 53°   Visibility: 10mi
Dew Point: 40°   Wind: 3mph
Humidity: 63%   Direction: 180°S
Pressure: 29.84"   Gusts: NA
Location:  44.08°N, 103.23°W
Report Text: KRCA 210958Z AUTO 18003KT 10SM CLR 11/05 A2984 RMK AO2 SLP091 T01140046 $
Loading
Personal Weather Stations






























Interactive Weather Map
Tropical Storm Tracking
New forecast layout! Learn more

10-Day Weather Forecast

Advertisements
Track Severe Weather on mobile